DAL9328 KSEA-KBOI
Flight info
| Callsign | DAL9328 |
|---|---|
| Flight time | 0h 56m |
| Altitude | 37000 |
| Route | SUMMA2 SUMMA BOI |
| Aircraft | DAL/M-SDE2E3FGHIRWXY/LB1 |
Departure
| Time | 2026-05-06 23:20 |
|---|---|
| Airport | Seattle–Tacoma International Airport (KSEA) |
Arrival
| Time | 2026-05-07 00:17 |
|---|---|
| Airport | Boise Air Terminal/Gowen Field (KBOI) |
| Time | Latitude | Longitude | Altitude | Speed | Heading |
|---|---|---|---|---|---|
| 2026-05-06 22:24 | 47.44191 | -122.30182 | 395 ft | 0 kts | 39° |
| 2026-05-06 23:00 | 47.44184 | -122.30190 | 394 ft | 3 kts | 39° |
| 2026-05-06 23:00 | 47.44181 | -122.30193 | 394 ft | 0 kts | 39° |
| 2026-05-06 23:01 | 47.44181 | -122.30194 | 395 ft | 0 kts | 37° |
| 2026-05-06 23:01 | 47.44178 | -122.30197 | 390 ft | 1 kts | 53° |
| 2026-05-06 23:01 | 47.44176 | -122.30199 | 392 ft | 0 kts | 86° |
| 2026-05-06 23:01 | 47.44175 | -122.30202 | 393 ft | 0 kts | 110° |
| 2026-05-06 23:02 | 47.44174 | -122.30204 | 392 ft | 0 kts | 128° |
| 2026-05-06 23:02 | 47.44175 | -122.30206 | 392 ft | 0 kts | 141° |
| 2026-05-06 23:02 | 47.44173 | -122.30207 | 393 ft | 1 kts | 167° |
| 2026-05-06 23:03 | 47.44169 | -122.30207 | 396 ft | 0 kts | 180° |
| 2026-05-06 23:04 | 47.44156 | -122.30210 | 390 ft | 7 kts | 194° |
| 2026-05-06 23:04 | 47.44069 | -122.30241 | 392 ft | 9 kts | 169° |
| 2026-05-06 23:05 | 47.44066 | -122.30241 | 392 ft | 0 kts | 176° |
| 2026-05-06 23:05 | 47.44057 | -122.30241 | 392 ft | 5 kts | 177° |
| 2026-05-06 23:05 | 47.44014 | -122.30285 | 391 ft | 11 kts | 235° |
| 2026-05-06 23:06 | 47.43992 | -122.30411 | 389 ft | 15 kts | 267° |
| 2026-05-06 23:06 | 47.43994 | -122.30578 | 387 ft | 17 kts | 282° |
| 2026-05-06 23:06 | 47.44082 | -122.30636 | 389 ft | 15 kts | 0° |
| 2026-05-06 23:06 | 47.44182 | -122.30634 | 391 ft | 14 kts | 1° |
| 2026-05-06 23:07 | 47.44277 | -122.30633 | 388 ft | 13 kts | 360° |
| 2026-05-06 23:07 | 47.44361 | -122.30633 | 393 ft | 11 kts | 360° |
| 2026-05-06 23:07 | 47.44438 | -122.30633 | 395 ft | 11 kts | 0° |
| 2026-05-06 23:07 | 47.44511 | -122.30632 | 398 ft | 10 kts | 0° |
| 2026-05-06 23:08 | 47.44578 | -122.30631 | 402 ft | 9 kts | 0° |
| 2026-05-06 23:08 | 47.44635 | -122.30630 | 402 ft | 8 kts | 0° |
| 2026-05-06 23:08 | 47.44686 | -122.30630 | 405 ft | 7 kts | 0° |
| 2026-05-06 23:08 | 47.44730 | -122.30629 | 406 ft | 6 kts | 0° |
| 2026-05-06 23:09 | 47.44771 | -122.30629 | 407 ft | 6 kts | 0° |
| 2026-05-06 23:09 | 47.44808 | -122.30628 | 406 ft | 5 kts | 0° |
| 2026-05-06 23:09 | 47.44840 | -122.30628 | 408 ft | 4 kts | 0° |
| 2026-05-06 23:09 | 47.44866 | -122.30628 | 410 ft | 4 kts | 0° |
| 2026-05-06 23:10 | 47.44915 | -122.30627 | 412 ft | 11 kts | 1° |
| 2026-05-06 23:10 | 47.44991 | -122.30628 | 412 ft | 11 kts | 360° |
| 2026-05-06 23:10 | 47.45066 | -122.30627 | 414 ft | 11 kts | 0° |
| 2026-05-06 23:10 | 47.45142 | -122.30626 | 414 ft | 11 kts | 0° |
| 2026-05-06 23:11 | 47.45218 | -122.30625 | 417 ft | 10 kts | 0° |
| 2026-05-06 23:11 | 47.45286 | -122.30625 | 421 ft | 9 kts | 0° |
| 2026-05-06 23:11 | 47.45346 | -122.30624 | 422 ft | 8 kts | 0° |
| 2026-05-06 23:11 | 47.45399 | -122.30624 | 420 ft | 7 kts | 0° |
| 2026-05-06 23:12 | 47.45447 | -122.30623 | 426 ft | 7 kts | 0° |
| 2026-05-06 23:12 | 47.45496 | -122.30623 | 427 ft | 7 kts | 0° |
| 2026-05-06 23:12 | 47.45554 | -122.30622 | 432 ft | 11 kts | 0° |
| 2026-05-06 23:12 | 47.45646 | -122.30621 | 426 ft | 16 kts | 0° |
| 2026-05-06 23:13 | 47.45773 | -122.30620 | 431 ft | 21 kts | 0° |
| 2026-05-06 23:13 | 47.45934 | -122.30619 | 434 ft | 24 kts | 1° |
| 2026-05-06 23:13 | 47.46062 | -122.30618 | 440 ft | 14 kts | 1° |
| 2026-05-06 23:13 | 47.46136 | -122.30617 | 441 ft | 0 kts | 0° |
| 2026-05-06 23:14 | 47.46140 | -122.30617 | 438 ft | 3 kts | 0° |
| 2026-05-06 23:14 | 47.46182 | -122.30606 | 437 ft | 10 kts | 14° |
| 2026-05-06 23:15 | 47.46260 | -122.30596 | 437 ft | 10 kts | 340° |
| 2026-05-06 23:15 | 47.46280 | -122.30641 | 429 ft | 0 kts | 279° |
| 2026-05-06 23:19 | 47.46283 | -122.30664 | 434 ft | 8 kts | 281° |
| 2026-05-06 23:19 | 47.46275 | -122.30758 | 434 ft | 9 kts | 235° |
| 2026-05-06 23:19 | 47.46250 | -122.30776 | 436 ft | 0 kts | 181° |
| 2026-05-06 23:19 | 47.46175 | -122.30778 | 429 ft | 47 kts | 181° |
| 2026-05-06 23:20 | 47.45503 | -122.30791 | 426 ft | 146 kts | 180° |
| 2026-05-06 23:20 | 47.44398 | -122.30794 | 632 ft | 194 kts | 182° |
| 2026-05-06 23:20 | 47.42944 | -122.30701 | 1202 ft | 220 kts | 167° |
| 2026-05-06 23:20 | 47.41735 | -122.29512 | 2569 ft | 211 kts | 132° |
| 2026-05-06 23:21 | 47.40872 | -122.27861 | 3974 ft | 201 kts | 132° |
| 2026-05-06 23:21 | 47.39970 | -122.26257 | 5143 ft | 206 kts | 130° |
| 2026-05-06 23:21 | 47.39155 | -122.24491 | 6272 ft | 211 kts | 125° |
| 2026-05-06 23:21 | 47.38298 | -122.22700 | 7307 ft | 215 kts | 130° |
| 2026-05-06 23:22 | 47.37314 | -122.21011 | 8349 ft | 217 kts | 138° |
| 2026-05-06 23:22 | 47.36198 | -122.19476 | 9300 ft | 226 kts | 141° |
| 2026-05-06 23:22 | 47.35048 | -122.17792 | 9971 ft | 235 kts | 135° |
| 2026-05-06 23:22 | 47.33965 | -122.15921 | 10158 ft | 248 kts | 132° |
| 2026-05-06 23:23 | 47.32835 | -122.13885 | 10261 ft | 263 kts | 133° |
| 2026-05-06 23:23 | 47.31617 | -122.11783 | 10395 ft | 276 kts | 134° |
| 2026-05-06 23:23 | 47.30190 | -122.09850 | 10565 ft | 282 kts | 150° |
| 2026-05-06 23:23 | 47.28468 | -122.08417 | 10742 ft | 288 kts | 158° |
| 2026-05-06 23:24 | 47.26605 | -122.07230 | 10909 ft | 294 kts | 167° |
| 2026-05-06 23:24 | 47.24597 | -122.06554 | 11074 ft | 298 kts | 177° |
| 2026-05-06 23:24 | 47.22516 | -122.06190 | 11229 ft | 304 kts | 180° |
| 2026-05-06 23:24 | 47.20381 | -122.06019 | 11369 ft | 308 kts | 184° |
| 2026-05-06 23:25 | 47.18234 | -122.06059 | 11492 ft | 313 kts | 187° |
| 2026-05-06 23:25 | 47.15978 | -122.06242 | 11745 ft | 342 kts | 189° |
| 2026-05-06 23:25 | 47.13555 | -122.06487 | 12932 ft | 349 kts | 189° |
| 2026-05-06 23:25 | 47.11143 | -122.06726 | 14423 ft | 348 kts | 189° |
| 2026-05-06 23:26 | 47.08749 | -122.06782 | 15790 ft | 348 kts | 185° |
| 2026-05-06 23:26 | 47.06340 | -122.06565 | 17192 ft | 346 kts | 181° |
| 2026-05-06 23:26 | 47.03962 | -122.06086 | 18570 ft | 344 kts | 177° |
| 2026-05-06 23:26 | 47.01631 | -122.05415 | 19761 ft | 338 kts | 175° |
| 2026-05-06 23:27 | 46.99352 | -122.04712 | 20943 ft | 331 kts | 175° |
| 2026-05-06 23:27 | 46.97129 | -122.03979 | 22120 ft | 324 kts | 174° |
| 2026-05-06 23:27 | 46.94971 | -122.03212 | 23281 ft | 315 kts | 173° |
| 2026-05-06 23:27 | 46.92880 | -122.02405 | 24283 ft | 306 kts | 172° |
| 2026-05-06 23:28 | 46.90882 | -122.01567 | 25151 ft | 296 kts | 171° |
| 2026-05-06 23:28 | 46.88948 | -122.00667 | 25972 ft | 287 kts | 168° |
| 2026-05-06 23:28 | 46.87109 | -121.99692 | 26700 ft | 277 kts | 165° |
| 2026-05-06 23:28 | 46.85349 | -121.98626 | 27270 ft | 268 kts | 164° |
| 2026-05-06 23:29 | 46.83692 | -121.97561 | 27855 ft | 254 kts | 163° |
| 2026-05-06 23:29 | 46.82127 | -121.96500 | 28300 ft | 242 kts | 162° |
| 2026-05-06 23:29 | 46.80616 | -121.95412 | 28474 ft | 247 kts | 160° |
| 2026-05-06 23:29 | 46.79044 | -121.94254 | 28470 ft | 257 kts | 162° |
| 2026-05-06 23:30 | 46.77380 | -121.93161 | 28436 ft | 271 kts | 164° |
| 2026-05-06 23:30 | 46.75573 | -121.92069 | 28297 ft | 293 kts | 165° |
| 2026-05-06 23:30 | 46.73604 | -121.90927 | 28217 ft | 316 kts | 165° |
| 2026-05-06 23:30 | 46.71504 | -121.89642 | 28217 ft | 339 kts | 161° |
| 2026-05-06 23:31 | 46.69304 | -121.88108 | 28239 ft | 361 kts | 158° |
| 2026-05-06 23:31 | 46.67002 | -121.86421 | 28318 ft | 380 kts | 157° |
| 2026-05-06 23:31 | 46.64572 | -121.84676 | 28363 ft | 398 kts | 159° |
| 2026-05-06 23:31 | 46.61952 | -121.83078 | 28417 ft | 414 kts | 163° |
| 2026-05-06 23:32 | 46.59239 | -121.81572 | 28504 ft | 431 kts | 162° |
| 2026-05-06 23:32 | 46.56402 | -121.79899 | 28584 ft | 448 kts | 163° |
| 2026-05-06 23:32 | 46.53400 | -121.78523 | 28621 ft | 458 kts | 171° |
| 2026-05-06 23:33 | 46.47150 | -121.77512 | 28691 ft | 478 kts | 183° |
| 2026-05-06 23:33 | 46.43782 | -121.77335 | 28606 ft | 497 kts | 178° |
| 2026-05-06 23:33 | 46.40337 | -121.76170 | 28332 ft | 522 kts | 163° |
| 2026-05-06 23:33 | 46.36991 | -121.73883 | 28187 ft | 537 kts | 153° |
| 2026-05-06 23:34 | 46.33963 | -121.71205 | 30609 ft | 487 kts | 149° |
| 2026-05-06 23:34 | 46.31289 | -121.68544 | 32716 ft | 446 kts | 145° |
| 2026-05-06 23:34 | 46.28977 | -121.65879 | 34561 ft | 408 kts | 140° |
| 2026-05-06 23:34 | 46.27021 | -121.63152 | 36052 ft | 372 kts | 131° |
| 2026-05-06 23:35 | 46.25358 | -121.60524 | 37272 ft | 338 kts | 135° |
| 2026-05-06 23:35 | 46.23694 | -121.58339 | 38187 ft | 309 kts | 142° |
| 2026-05-06 23:35 | 46.22582 | -121.57099 | 38354 ft | 307 kts | 143° |
| 2026-05-06 23:35 | 46.20819 | -121.55163 | 37721 ft | 332 kts | 142° |
| 2026-05-06 23:36 | 46.18939 | -121.53001 | 37206 ft | 357 kts | 141° |
| 2026-05-06 23:36 | 46.16961 | -121.50655 | 36807 ft | 378 kts | 140° |
| 2026-05-06 23:36 | 46.14907 | -121.48142 | 36519 ft | 397 kts | 139° |
| 2026-05-06 23:36 | 46.12777 | -121.45472 | 36261 ft | 414 kts | 140° |
| 2026-05-06 23:37 | 46.10559 | -121.42689 | 36040 ft | 430 kts | 140° |
| 2026-05-06 23:37 | 46.08284 | -121.39834 | 36208 ft | 434 kts | 139° |
| 2026-05-06 23:37 | 46.06003 | -121.36975 | 36477 ft | 436 kts | 140° |
| 2026-05-06 23:37 | 46.03712 | -121.34108 | 36724 ft | 438 kts | 139° |
| 2026-05-06 23:38 | 46.01399 | -121.31235 | 36949 ft | 440 kts | 140° |
| 2026-05-06 23:38 | 45.99078 | -121.28356 | 37194 ft | 442 kts | 140° |
| 2026-05-06 23:38 | 45.96738 | -121.25454 | 37347 ft | 447 kts | 140° |
| 2026-05-06 23:39 | 45.91955 | -121.19540 | 37447 ft | 460 kts | 140° |
| 2026-05-06 23:39 | 45.87023 | -121.13465 | 37545 ft | 474 kts | 140° |
| 2026-05-06 23:40 | 45.81970 | -121.07251 | 37618 ft | 489 kts | 140° |
| 2026-05-06 23:40 | 45.76730 | -121.00800 | 37648 ft | 504 kts | 139° |
| 2026-05-06 23:41 | 45.71324 | -120.94152 | 37604 ft | 520 kts | 139° |
| 2026-05-06 23:41 | 45.68580 | -120.90781 | 38253 ft | 506 kts | 139° |
| 2026-05-06 23:41 | 45.65964 | -120.87571 | 39191 ft | 494 kts | 139° |
| 2026-05-06 23:41 | 45.63293 | -120.84300 | 38486 ft | 518 kts | 139° |
| 2026-05-06 23:42 | 45.60579 | -120.80978 | 39248 ft | 500 kts | 139° |
| 2026-05-06 23:42 | 45.57984 | -120.77804 | 39948 ft | 482 kts | 139° |
| 2026-05-06 23:42 | 45.55443 | -120.74708 | 39650 ft | 482 kts | 139° |
| 2026-05-06 23:42 | 45.52861 | -120.71567 | 38965 ft | 492 kts | 138° |
| 2026-05-06 23:43 | 45.50273 | -120.68341 | 37582 ft | 511 kts | 138° |
| 2026-05-06 23:43 | 45.47552 | -120.64884 | 36879 ft | 515 kts | 137° |
| 2026-05-06 23:43 | 45.44931 | -120.61539 | 36732 ft | 510 kts | 137° |
| 2026-05-06 23:43 | 45.42295 | -120.58183 | 36599 ft | 509 kts | 137° |
| 2026-05-06 23:44 | 45.39656 | -120.54778 | 36490 ft | 515 kts | 137° |
| 2026-05-06 23:44 | 45.36998 | -120.51296 | 36379 ft | 522 kts | 136° |
| 2026-05-06 23:44 | 45.34356 | -120.47777 | 36481 ft | 521 kts | 136° |
| 2026-05-06 23:44 | 45.31732 | -120.44226 | 36798 ft | 514 kts | 135° |
| 2026-05-06 23:45 | 45.29205 | -120.40753 | 37544 ft | 496 kts | 134° |
| 2026-05-06 23:45 | 45.26742 | -120.37315 | 37819 ft | 487 kts | 134° |
| 2026-05-06 23:45 | 45.24336 | -120.33896 | 37353 ft | 494 kts | 133° |
| 2026-05-06 23:45 | 45.21938 | -120.30421 | 36797 ft | 503 kts | 133° |
| 2026-05-06 23:46 | 45.19484 | -120.26796 | 36132 ft | 514 kts | 133° |
| 2026-05-06 23:46 | 45.17013 | -120.23076 | 35649 ft | 520 kts | 132° |
| 2026-05-06 23:46 | 45.14553 | -120.19306 | 35346 ft | 521 kts | 131° |
| 2026-05-06 23:46 | 45.12108 | -120.15492 | 35166 ft | 524 kts | 130° |
| 2026-05-06 23:47 | 45.09729 | -120.11619 | 35502 ft | 519 kts | 129° |
| 2026-05-06 23:47 | 45.07453 | -120.07707 | 36061 ft | 510 kts | 127° |
| 2026-05-06 23:47 | 45.05285 | -120.03762 | 36585 ft | 503 kts | 125° |
| 2026-05-06 23:47 | 45.03203 | -119.99822 | 37076 ft | 496 kts | 124° |
| 2026-05-06 23:48 | 45.01176 | -119.95894 | 37350 ft | 496 kts | 123° |
| 2026-05-06 23:48 | 44.97093 | -119.87956 | 37519 ft | 502 kts | 123° |
| 2026-05-06 23:49 | 44.92951 | -119.79940 | 37627 ft | 509 kts | 123° |
| 2026-05-06 23:49 | 44.88751 | -119.71789 | 37703 ft | 516 kts | 123° |
| 2026-05-06 23:49 | 44.86724 | -119.67861 | 39051 ft | 478 kts | 123° |
| 2026-05-06 23:50 | 44.84802 | -119.64152 | 39378 ft | 469 kts | 123° |
| 2026-05-06 23:50 | 44.80831 | -119.56452 | 37446 ft | 506 kts | 123° |
| 2026-05-06 23:50 | 44.78765 | -119.52408 | 36780 ft | 515 kts | 123° |
| 2026-05-06 23:51 | 44.76725 | -119.48411 | 36978 ft | 494 kts | 123° |
| 2026-05-06 23:51 | 44.74745 | -119.44534 | 36926 ft | 480 kts | 123° |
| 2026-05-06 23:51 | 44.72805 | -119.40735 | 36842 ft | 466 kts | 123° |
| 2026-05-06 23:51 | 44.70947 | -119.37061 | 36727 ft | 457 kts | 122° |
| 2026-05-06 23:52 | 44.67372 | -119.29802 | 36524 ft | 447 kts | 121° |
| 2026-05-06 23:52 | 44.65655 | -119.26201 | 36420 ft | 442 kts | 120° |
| 2026-05-06 23:52 | 44.64016 | -119.22570 | 36286 ft | 438 kts | 118° |
| 2026-05-06 23:53 | 44.62450 | -119.18926 | 36117 ft | 436 kts | 118° |
| 2026-05-06 23:53 | 44.60900 | -119.15249 | 35816 ft | 437 kts | 117° |
| 2026-05-06 23:53 | 44.59366 | -119.11545 | 35515 ft | 439 kts | 117° |
| 2026-05-06 23:53 | 44.57847 | -119.07810 | 35226 ft | 441 kts | 117° |
| 2026-05-06 23:54 | 44.56343 | -119.04045 | 34920 ft | 443 kts | 116° |
| 2026-05-06 23:54 | 44.54863 | -119.00243 | 34611 ft | 445 kts | 115° |
| 2026-05-06 23:54 | 44.53480 | -118.96356 | 34283 ft | 446 kts | 112° |
| 2026-05-06 23:54 | 44.52142 | -118.92435 | 33966 ft | 448 kts | 112° |
| 2026-05-06 23:55 | 44.50799 | -118.88486 | 33624 ft | 450 kts | 112° |
| 2026-05-06 23:55 | 44.49465 | -118.84565 | 33317 ft | 451 kts | 112° |
| 2026-05-06 23:55 | 44.48095 | -118.80535 | 33027 ft | 452 kts | 112° |
| 2026-05-06 23:55 | 44.46749 | -118.76574 | 32722 ft | 452 kts | 112° |
| 2026-05-06 23:56 | 44.45395 | -118.72592 | 32440 ft | 452 kts | 112° |
| 2026-05-06 23:56 | 44.44043 | -118.68615 | 32168 ft | 452 kts | 112° |
| 2026-05-06 23:56 | 44.42696 | -118.64653 | 31900 ft | 451 kts | 112° |
| 2026-05-06 23:56 | 44.41418 | -118.60632 | 31447 ft | 454 kts | 109° |
| 2026-05-06 23:57 | 44.40251 | -118.56500 | 30454 ft | 471 kts | 108° |
| 2026-05-06 23:57 | 44.39052 | -118.52158 | 28857 ft | 489 kts | 108° |
| 2026-05-06 23:57 | 44.37828 | -118.47629 | 27122 ft | 508 kts | 109° |
| 2026-05-06 23:57 | 44.36582 | -118.42921 | 25251 ft | 526 kts | 109° |
| 2026-05-06 23:58 | 44.35329 | -118.38079 | 24588 ft | 518 kts | 109° |
| 2026-05-06 23:58 | 44.34163 | -118.33509 | 24697 ft | 479 kts | 108° |
| 2026-05-06 23:58 | 44.33084 | -118.29289 | 24703 ft | 448 kts | 108° |
| 2026-05-06 23:58 | 44.32058 | -118.25294 | 24610 ft | 427 kts | 108° |
| 2026-05-06 23:59 | 44.31051 | -118.21379 | 23758 ft | 433 kts | 109° |
| 2026-05-06 23:59 | 44.30013 | -118.17336 | 22258 ft | 452 kts | 109° |
| 2026-05-06 23:59 | 44.28932 | -118.13127 | 20739 ft | 467 kts | 109° |
| 2026-05-06 23:59 | 44.27823 | -118.08806 | 19275 ft | 479 kts | 109° |
| 2026-05-07 00:00 | 44.26703 | -118.04433 | 17695 ft | 475 kts | 109° |
| 2026-05-07 00:00 | 44.25608 | -118.00141 | 16227 ft | 463 kts | 109° |
| 2026-05-07 00:00 | 44.24617 | -117.95969 | 15091 ft | 443 kts | 107° |
| 2026-05-07 00:00 | 44.24037 | -117.93277 | 14388 ft | 431 kts | 105° |
| 2026-05-07 00:01 | 44.23042 | -117.88025 | 12973 ft | 407 kts | 103° |
| 2026-05-07 00:01 | 44.22435 | -117.84252 | 12017 ft | 392 kts | 101° |
| 2026-05-07 00:01 | 44.21932 | -117.80542 | 11410 ft | 392 kts | 99° |
| 2026-05-07 00:01 | 44.21505 | -117.76761 | 10807 ft | 395 kts | 97° |
| 2026-05-07 00:02 | 44.21157 | -117.72957 | 10209 ft | 396 kts | 95° |
| 2026-05-07 00:02 | 44.20882 | -117.69145 | 9564 ft | 395 kts | 95° |
| 2026-05-07 00:02 | 44.20630 | -117.65307 | 8960 ft | 398 kts | 95° |
| 2026-05-07 00:02 | 44.20381 | -117.61508 | 8399 ft | 400 kts | 95° |
| 2026-05-07 00:03 | 44.20127 | -117.57599 | 8047 ft | 414 kts | 95° |
| 2026-05-07 00:03 | 44.19872 | -117.53611 | 8162 ft | 413 kts | 95° |
| 2026-05-07 00:03 | 44.19578 | -117.49622 | 8257 ft | 414 kts | 98° |
| 2026-05-07 00:03 | 44.19088 | -117.45662 | 8353 ft | 414 kts | 102° |
| 2026-05-07 00:04 | 44.18354 | -117.41765 | 8438 ft | 419 kts | 107° |
| 2026-05-07 00:04 | 44.17373 | -117.37919 | 9081 ft | 411 kts | 111° |
| 2026-05-07 00:04 | 44.16368 | -117.34345 | 10993 ft | 387 kts | 112° |
| 2026-05-07 00:04 | 44.15313 | -117.30878 | 12099 ft | 391 kts | 114° |
| 2026-05-07 00:05 | 44.14172 | -117.27415 | 12767 ft | 392 kts | 115° |
| 2026-05-07 00:05 | 44.12997 | -117.23966 | 12716 ft | 399 kts | 116° |
| 2026-05-07 00:05 | 44.11768 | -117.20432 | 12372 ft | 411 kts | 116° |
| 2026-05-07 00:05 | 44.10532 | -117.16793 | 11993 ft | 417 kts | 115° |
| 2026-05-07 00:06 | 44.09340 | -117.13153 | 11557 ft | 413 kts | 114° |
| 2026-05-07 00:06 | 44.08187 | -117.09513 | 11097 ft | 410 kts | 114° |
| 2026-05-07 00:06 | 44.07058 | -117.05881 | 10672 ft | 407 kts | 113° |
| 2026-05-07 00:06 | 44.05934 | -117.02274 | 10256 ft | 408 kts | 114° |
| 2026-05-07 00:07 | 44.04714 | -116.98703 | 9839 ft | 408 kts | 118° |
| 2026-05-07 00:07 | 44.03256 | -116.95342 | 9391 ft | 403 kts | 125° |
| 2026-05-07 00:07 | 44.01547 | -116.92289 | 8967 ft | 398 kts | 133° |
| 2026-05-07 00:07 | 43.99630 | -116.89572 | 8582 ft | 392 kts | 137° |
| 2026-05-07 00:08 | 43.97601 | -116.87075 | 8184 ft | 387 kts | 142° |
| 2026-05-07 00:08 | 43.95486 | -116.84781 | 7803 ft | 383 kts | 145° |
| 2026-05-07 00:08 | 43.93379 | -116.82571 | 7408 ft | 379 kts | 145° |
| 2026-05-07 00:08 | 43.91312 | -116.80394 | 7026 ft | 376 kts | 144° |
| 2026-05-07 00:09 | 43.89254 | -116.78142 | 6537 ft | 377 kts | 142° |
| 2026-05-07 00:09 | 43.87238 | -116.75808 | 5928 ft | 382 kts | 142° |
| 2026-05-07 00:09 | 43.85177 | -116.73395 | 5330 ft | 390 kts | 141° |
| 2026-05-07 00:09 | 43.83173 | -116.70959 | 5478 ft | 377 kts | 139° |
| 2026-05-07 00:10 | 43.81383 | -116.68409 | 5671 ft | 365 kts | 133° |
| 2026-05-07 00:10 | 43.79754 | -116.65717 | 5599 ft | 364 kts | 132° |
| 2026-05-07 00:10 | 43.77967 | -116.63179 | 5557 ft | 372 kts | 138° |
| 2026-05-07 00:10 | 43.75970 | -116.60861 | 5496 ft | 377 kts | 143° |
| 2026-05-07 00:11 | 43.73926 | -116.58557 | 5447 ft | 382 kts | 141° |
| 2026-05-07 00:11 | 43.71950 | -116.56088 | 5412 ft | 386 kts | 137° |
| 2026-05-07 00:11 | 43.70055 | -116.53443 | 5349 ft | 388 kts | 134° |
| 2026-05-07 00:11 | 43.68217 | -116.50692 | 5294 ft | 391 kts | 133° |
| 2026-05-07 00:12 | 43.66497 | -116.47782 | 5220 ft | 392 kts | 126° |
| 2026-05-07 00:12 | 43.65109 | -116.44539 | 5223 ft | 392 kts | 117° |
| 2026-05-07 00:12 | 43.64039 | -116.41084 | 5248 ft | 391 kts | 111° |
| 2026-05-07 00:12 | 43.63084 | -116.37576 | 5234 ft | 390 kts | 111° |
| 2026-05-07 00:13 | 43.61977 | -116.34166 | 5193 ft | 390 kts | 117° |
| 2026-05-07 00:13 | 43.60523 | -116.31020 | 5083 ft | 382 kts | 128° |
| 2026-05-07 00:13 | 43.58852 | -116.28365 | 4618 ft | 352 kts | 130° |
| 2026-05-07 00:13 | 43.57346 | -116.25817 | 3734 ft | 333 kts | 130° |
| 2026-05-07 00:14 | 43.55885 | -116.23542 | 3656 ft | 302 kts | 135° |
| 2026-05-07 00:14 | 43.54286 | -116.21762 | 3979 ft | 289 kts | 149° |
| 2026-05-07 00:14 | 43.52486 | -116.20796 | 4434 ft | 264 kts | 161° |
| 2026-05-07 00:14 | 43.50947 | -116.19651 | 4763 ft | 244 kts | 135° |
| 2026-05-07 00:15 | 43.50241 | -116.17679 | 5025 ft | 227 kts | 91° |
| 2026-05-07 00:15 | 43.50750 | -116.15719 | 5188 ft | 225 kts | 40° |
| 2026-05-07 00:15 | 43.52169 | -116.14869 | 5268 ft | 217 kts | 359° |
| 2026-05-07 00:15 | 43.53471 | -116.15584 | 4761 ft | 203 kts | 317° |
| 2026-05-07 00:16 | 43.54392 | -116.16958 | 4169 ft | 192 kts | 310° |
| 2026-05-07 00:16 | 43.55159 | -116.18428 | 3562 ft | 191 kts | 301° |
| 2026-05-07 00:16 | 43.55785 | -116.20070 | 3047 ft | 191 kts | 298° |
| 2026-05-07 00:16 | 43.56320 | -116.21647 | 2867 ft | 171 kts | 301° |
| 2026-05-07 00:17 | 43.56741 | -116.22843 | 2851 ft | 94 kts | 293° |
| 2026-05-07 00:17 | 43.56910 | -116.23367 | 2844 ft | 39 kts | 295° |
| 2026-05-07 00:17 | 43.56999 | -116.23616 | 2846 ft | 16 kts | 298° |
| 2026-05-07 00:17 | 43.57056 | -116.23648 | 2846 ft | 6 kts | 12° |
| 2026-05-07 00:18 | 43.57072 | -116.23641 | 2847 ft | 0 kts | 23° |
| 2026-05-07 00:19 | 43.57075 | -116.23639 | 2847 ft | 2 kts | 23° |
| 2026-05-07 00:19 | 43.57101 | -116.23609 | 2846 ft | 8 kts | 61° |
| 2026-05-07 00:19 | 43.57085 | -116.23521 | 2844 ft | 12 kts | 115° |
| 2026-05-07 00:20 | 43.57043 | -116.23397 | 2844 ft | 17 kts | 115° |
| 2026-05-07 00:20 | 43.56984 | -116.23224 | 2843 ft | 21 kts | 116° |
| 2026-05-07 00:20 | 43.56924 | -116.23047 | 2844 ft | 20 kts | 115° |
| 2026-05-07 00:20 | 43.56865 | -116.22874 | 2846 ft | 19 kts | 115° |
| 2026-05-07 00:21 | 43.56810 | -116.22716 | 2849 ft | 17 kts | 115° |
| 2026-05-07 00:21 | 43.56757 | -116.22564 | 2850 ft | 18 kts | 115° |
| 2026-05-07 00:21 | 43.56724 | -116.22463 | 2853 ft | 0 kts | 115° |
| 2026-05-07 00:22 | 43.56716 | -116.22442 | 2854 ft | 5 kts | 117° |
| 2026-05-07 00:22 | 43.56695 | -116.22377 | 2855 ft | 7 kts | 103° |
| 2026-05-07 00:22 | 43.56702 | -116.22350 | 2854 ft | 0 kts | 32° |
| 2026-05-07 00:23 | 43.56710 | -116.22352 | 2856 ft | 3 kts | 354° |
| 2026-05-07 00:23 | 43.56756 | -116.22363 | 2855 ft | 5 kts | 348° |